createdAt,value
2019-05-12T00:00:19.870Z,4.30
2019-05-12T00:02:48.656Z,4.50
2019-05-12T00:05:18.462Z,6.27
2019-05-12T00:07:48.851Z,5.40
2019-05-12T00:10:17.872Z,5.40
2019-05-12T00:12:48.340Z,4.50
2019-05-12T00:15:19.246Z,4.67
2019-05-12T00:17:48.387Z,4.10
2019-05-12T00:20:18.182Z,4.27
2019-05-12T00:22:51.392Z,4.23
2019-05-12T00:25:20.041Z,3.80
2019-05-12T00:27:48.902Z,4.00
2019-05-12T00:30:34.877Z,3.87
2019-05-12T00:33:03.911Z,3.60
2019-05-12T00:35:32.401Z,4.37
2019-05-12T00:38:01.062Z,3.87
2019-05-12T00:40:29.467Z,3.90
2019-05-12T00:42:58.059Z,4.63
2019-05-12T00:45:29.305Z,5.90
2019-05-12T00:47:58.263Z,6.17
2019-05-12T00:50:29.003Z,6.73
2019-05-12T00:52:57.949Z,7.07
2019-05-12T00:55:28.848Z,8.37
2019-05-12T00:57:58.170Z,7.90
2019-05-12T01:00:29.432Z,8.57
2019-05-12T01:02:58.142Z,8.33
2019-05-12T01:05:29.149Z,9.23
2019-05-12T01:07:58.233Z,9.87
2019-05-12T01:10:28.676Z,10.30
2019-05-12T01:12:58.127Z,10.27
2019-05-12T01:15:28.639Z,10.33
2019-05-12T01:17:58.487Z,11.37
2019-05-12T01:20:28.270Z,11.90
2019-05-12T01:22:57.893Z,11.20
2019-05-12T01:25:28.762Z,11.40
2019-05-12T01:27:58.973Z,12.47
2019-05-12T01:30:28.397Z,12.50
2019-05-12T01:32:58.115Z,12.83
2019-05-12T01:35:28.188Z,13.87
2019-05-12T01:37:58.721Z,14.87
2019-05-12T01:40:28.554Z,15.80
2019-05-12T01:42:58.268Z,16.00
2019-05-12T01:45:28.832Z,15.40
2019-05-12T01:47:59.092Z,16.67
2019-05-12T01:50:28.374Z,16.33
2019-05-12T01:52:58.866Z,17.07
2019-05-12T01:55:28.295Z,16.53
2019-05-12T01:57:57.811Z,17.20
2019-05-12T02:00:28.199Z,17.23
2019-05-12T02:02:58.460Z,16.87
2019-05-12T02:05:28.062Z,17.27
2019-05-12T02:07:58.683Z,18.03
2019-05-12T02:10:28.727Z,15.90
2019-05-12T02:12:59.421Z,17.07
2019-05-12T02:15:27.961Z,17.07
2019-05-12T02:17:58.949Z,17.20
2019-05-12T02:20:28.737Z,17.10
2019-05-12T02:22:58.472Z,16.80
2019-05-12T02:25:28.739Z,15.77
2019-05-12T02:27:58.379Z,16.17
2019-05-12T02:30:30.525Z,15.87
2019-05-12T02:32:59.045Z,15.23
2019-05-12T02:35:27.747Z,15.90
2019-05-12T02:37:56.348Z,15.63
2019-05-12T02:40:25.615Z,16.80
2019-05-12T02:42:55.015Z,15.13
2019-05-12T02:45:25.910Z,15.97
2019-05-12T02:47:54.706Z,15.97
2019-05-12T02:50:37.369Z,15.83
2019-05-12T02:53:06.809Z,17.93
2019-05-12T02:55:35.894Z,17.77
2019-05-12T02:58:06.150Z,17.93
2019-05-12T03:00:36.256Z,19.33
2019-05-12T03:03:07.629Z,18.57
2019-05-12T03:05:37.094Z,18.97
2019-05-12T03:08:05.630Z,20.37
2019-05-12T03:10:36.539Z,19.80
2019-05-12T03:13:05.548Z,19.67
2019-05-12T03:15:36.502Z,19.37
2019-05-12T03:18:06.279Z,19.90
2019-05-12T03:20:35.490Z,20.07
2019-05-12T03:23:05.731Z,19.73
2019-05-12T03:25:36.301Z,18.93
2019-05-12T03:28:08.662Z,19.17
2019-05-12T03:30:38.582Z,18.87
2019-05-12T03:33:09.803Z,18.80
2019-05-12T03:35:42.672Z,17.47
2019-05-12T03:38:06.867Z,17.60
2019-05-12T03:40:38.609Z,17.20
2019-05-12T03:43:05.884Z,17.50
2019-05-12T03:45:36.013Z,18.17
2019-05-12T03:48:06.253Z,16.40
2019-05-12T03:50:35.806Z,16.13
2019-05-12T03:53:10.153Z,15.73
2019-05-12T03:55:41.386Z,14.67
2019-05-12T03:58:06.259Z,13.60
2019-05-12T04:00:36.199Z,13.40
2019-05-12T04:03:05.660Z,12.63
2019-05-12T04:05:36.361Z,10.73
2019-05-12T04:08:06.368Z,10.10
2019-05-12T04:10:36.362Z,8.87
2019-05-12T04:13:05.693Z,8.60
2019-05-12T04:15:35.446Z,8.57
2019-05-12T04:18:05.914Z,8.23
2019-05-12T04:20:36.063Z,8.37
2019-05-12T04:23:06.272Z,8.87
2019-05-12T04:25:47.935Z,7.53
2019-05-12T04:28:05.496Z,7.73
2019-05-12T04:30:35.510Z,7.13
2019-05-12T04:33:05.185Z,7.43
2019-05-12T04:35:35.169Z,7.30
2019-05-12T04:38:04.802Z,7.27
2019-05-12T04:40:36.060Z,6.70
2019-05-12T04:43:05.724Z,6.97
2019-05-12T04:45:34.867Z,6.77
2019-05-12T04:48:05.165Z,6.53
2019-05-12T04:50:35.399Z,6.17
2019-05-12T04:53:06.015Z,7.10
2019-05-12T04:55:36.023Z,6.30
2019-05-12T04:58:07.557Z,7.30
2019-05-12T05:03:35.048Z,6.80
2019-05-12T05:06:04.622Z,6.57
2019-05-12T05:08:34.872Z,7.10
2019-05-12T05:11:04.062Z,6.27
2019-05-12T05:13:36.824Z,6.73
2019-05-12T05:16:05.315Z,6.07
2019-05-12T05:18:34.417Z,6.20
2019-05-12T05:21:04.740Z,6.57
2019-05-12T05:23:33.536Z,6.27
2019-05-12T05:26:03.321Z,6.50
2019-05-12T05:28:33.858Z,6.00
2019-05-12T05:31:03.576Z,5.60
2019-05-12T05:33:34.058Z,6.60
2019-05-12T05:36:03.498Z,5.97
2019-05-12T05:38:34.267Z,5.93
2019-05-12T05:41:05.933Z,5.70
2019-05-12T05:43:33.350Z,5.73
2019-05-12T05:46:05.518Z,6.40
2019-05-12T05:48:34.959Z,6.03
2019-05-12T05:51:07.435Z,4.93
2019-05-12T05:53:33.538Z,5.83
2019-05-12T05:56:04.075Z,5.70
2019-05-12T05:58:33.950Z,5.40
2019-05-12T06:01:03.791Z,4.67
2019-05-12T06:03:33.859Z,4.80
2019-05-12T06:06:10.788Z,5.30
2019-05-12T06:08:33.790Z,4.60
2019-05-12T06:11:04.357Z,4.60
2019-05-12T06:13:34.585Z,4.10
2019-05-12T06:16:04.394Z,4.47
2019-05-12T06:18:33.527Z,5.50
2019-05-12T06:21:03.483Z,4.60
2019-05-12T06:23:34.914Z,4.97
2019-05-12T06:26:04.420Z,5.50
2019-05-12T06:28:38.413Z,8.23
2019-05-12T06:31:04.243Z,5.97
2019-05-12T06:33:36.060Z,4.90
2019-05-12T06:36:04.468Z,3.80
2019-05-12T06:38:38.693Z,4.57
2019-05-12T06:41:03.667Z,4.13
2019-05-12T06:43:35.327Z,4.10
2019-05-12T06:46:03.617Z,3.97
2019-05-12T06:48:33.280Z,4.17
2019-05-12T06:51:03.900Z,3.77
2019-05-12T06:53:33.659Z,3.57
2019-05-12T06:56:04.493Z,3.80
2019-05-12T06:58:34.414Z,3.43
2019-05-12T07:01:10.298Z,3.50
2019-05-12T07:03:37.048Z,3.57
2019-05-12T07:06:04.082Z,2.70
2019-05-12T07:08:38.293Z,3.13
2019-05-12T07:11:05.950Z,3.10
2019-05-12T07:13:34.278Z,3.10
2019-05-12T07:16:22.086Z,2.80
2019-05-12T07:18:47.108Z,2.50
2019-05-12T07:21:19.800Z,2.70
2019-05-12T07:23:45.943Z,3.03
2019-05-12T07:26:19.476Z,2.47
2019-05-12T07:28:46.914Z,2.60
2019-05-12T07:31:15.865Z,2.37
2019-05-12T07:33:45.957Z,2.40
2019-05-12T07:36:16.303Z,2.10
2019-05-12T07:38:46.673Z,2.70
2019-05-12T07:41:15.725Z,2.80
2019-05-12T07:43:50.588Z,3.00
2019-05-12T07:46:18.021Z,2.47
2019-05-12T07:48:50.778Z,3.00
2019-05-12T07:51:17.313Z,2.03
2019-05-12T07:53:54.662Z,1.70
2019-05-12T07:56:19.702Z,2.00
2019-05-12T07:58:52.980Z,2.07
2019-05-12T08:01:17.422Z,2.33
2019-05-12T08:03:46.085Z,2.13
2019-05-12T08:06:14.465Z,1.97
2019-05-12T08:08:50.255Z,2.23
2019-05-12T08:11:14.907Z,2.00
2019-05-12T08:13:43.843Z,2.20
2019-05-12T08:16:14.262Z,2.00
2019-05-12T08:18:44.503Z,1.97
2019-05-12T08:21:14.027Z,1.80
2019-05-12T08:23:44.516Z,2.47
2019-05-12T08:26:18.301Z,1.73
2019-05-12T08:28:44.188Z,1.70
2019-05-12T08:31:14.107Z,1.70
2019-05-12T08:33:43.635Z,1.63
2019-05-12T08:36:16.048Z,1.57
2019-05-12T08:38:44.414Z,1.97
2019-05-12T08:41:14.643Z,2.17
2019-05-12T08:43:46.888Z,2.10
2019-05-12T08:46:15.744Z,1.87
2019-05-12T08:48:44.657Z,2.00
2019-05-12T08:51:16.709Z,1.53
2019-05-12T08:53:44.044Z,1.82
2019-05-12T08:56:18.168Z,1.50
2019-05-12T08:58:50.399Z,1.43
2019-05-12T09:01:13.803Z,1.33
2019-05-12T09:03:44.247Z,1.87
2019-05-12T09:06:15.652Z,1.50
2019-05-12T09:08:49.400Z,1.77
2019-05-12T09:11:15.088Z,1.97
2019-05-12T09:13:43.612Z,2.20
2019-05-12T09:16:13.901Z,1.70
2019-05-12T09:18:43.500Z,1.67
2019-05-12T09:21:14.076Z,1.80
2019-05-12T09:23:44.931Z,2.00
2019-05-12T09:26:13.553Z,1.70
2019-05-12T09:28:47.457Z,2.00
2019-05-12T09:31:14.108Z,1.93
2019-05-12T09:33:44.551Z,2.17
2019-05-12T09:36:19.803Z,1.70
2019-05-12T09:38:44.001Z,1.40
2019-05-12T09:41:13.980Z,1.80
2019-05-12T09:43:46.381Z,2.00
2019-05-12T09:46:14.396Z,2.00
2019-05-12T09:48:46.857Z,1.50
2019-05-12T09:51:13.776Z,1.80
2019-05-12T09:53:50.755Z,2.03
2019-05-12T09:56:13.873Z,2.00
2019-05-12T09:58:43.651Z,1.97
2019-05-12T10:01:14.046Z,1.90
2019-05-12T10:03:43.730Z,2.87
2019-05-12T10:06:19.522Z,3.53
2019-05-12T10:08:43.430Z,2.10
2019-05-12T10:11:16.689Z,2.17
2019-05-12T10:13:42.170Z,2.50
2019-05-12T10:16:10.620Z,2.20
2019-05-12T10:18:43.052Z,2.73
2019-05-12T10:21:10.037Z,2.90
2019-05-12T10:23:39.353Z,2.47
2019-05-12T10:26:11.604Z,2.60
2019-05-12T10:28:37.973Z,2.57
2019-05-12T10:31:06.711Z,2.00
2019-05-12T10:33:35.105Z,2.40
2019-05-12T10:36:06.854Z,2.03
2019-05-12T10:38:34.346Z,1.92
2019-05-12T10:41:04.297Z,3.93
2019-05-12T10:43:34.217Z,2.47
2019-05-12T10:46:04.216Z,2.70
2019-05-12T10:48:33.837Z,3.50
2019-05-12T10:51:02.599Z,2.50
2019-05-12T10:53:31.012Z,3.30
2019-05-12T10:55:59.417Z,2.53
2019-05-12T10:58:27.962Z,2.80
2019-05-12T11:00:58.999Z,2.40
2019-05-12T11:03:26.488Z,2.10
2019-05-12T11:06:02.607Z,1.93
2019-05-12T11:08:25.025Z,2.07
2019-05-12T11:10:59.358Z,1.83
2019-05-12T11:13:23.569Z,2.02
2019-05-12T11:15:52.028Z,2.20
2019-05-12T11:18:26.067Z,2.13
2019-05-12T11:20:50.893Z,1.77
2019-05-12T11:23:19.373Z,1.92
2019-05-12T11:25:47.765Z,2.13
2019-05-12T11:28:16.281Z,1.85
2019-05-12T11:30:44.704Z,1.60
2019-05-12T11:33:13.135Z,1.80
2019-05-12T11:35:43.537Z,1.50
2019-05-12T11:38:13.470Z,1.57
2019-05-12T11:40:43.733Z,1.60
2019-05-12T11:43:14.449Z,1.73
2019-05-12T11:45:44.182Z,1.50
2019-05-12T11:48:14.363Z,1.20
2019-05-12T11:50:49.406Z,1.70
2019-05-12T11:53:13.859Z,1.92
2019-05-12T11:55:43.742Z,1.57
2019-05-12T11:58:12.488Z,1.70
2019-05-12T12:00:44.154Z,1.47
2019-05-12T12:03:17.055Z,1.17
2019-05-12T12:05:44.333Z,1.25
2019-05-12T12:08:14.460Z,1.63
2019-05-12T12:10:43.189Z,1.57
2019-05-12T12:13:13.940Z,4.40
2019-05-12T12:15:41.860Z,1.30
2019-05-12T12:18:15.310Z,1.20
2019-05-12T12:20:40.780Z,1.07
2019-05-12T12:23:11.281Z,0.90
2019-05-12T12:25:43.240Z,1.15
2019-05-12T12:28:09.757Z,0.80
2019-05-12T12:30:38.154Z,1.07
2019-05-12T12:33:06.566Z,1.00
2019-05-12T12:35:34.985Z,0.90
2019-05-12T12:38:04.105Z,0.90
2019-05-12T12:40:32.558Z,0.78
2019-05-12T12:43:03.476Z,0.80
2019-05-12T12:45:36.631Z,1.10
2019-05-12T12:48:03.408Z,1.00
2019-05-12T12:50:34.173Z,0.97
2019-05-12T12:53:02.746Z,0.93
2019-05-12T12:55:31.192Z,0.70
2019-05-12T12:57:59.697Z,0.70
2019-05-12T13:00:32.023Z,0.53
2019-05-12T13:02:58.267Z,1.02
2019-05-12T13:05:27.185Z,0.70
2019-05-12T13:07:55.806Z,1.02
2019-05-12T13:10:24.909Z,1.90
2019-05-12T13:12:56.529Z,0.70
2019-05-12T13:15:24.034Z,0.57
2019-05-12T13:17:52.448Z,0.60
2019-05-12T13:20:20.988Z,0.50
2019-05-12T13:22:49.456Z,0.42
2019-05-12T13:25:17.985Z,0.40
2019-05-12T13:27:46.387Z,0.50
2019-05-12T13:30:19.855Z,0.68
2019-05-12T13:32:45.236Z,0.42
2019-05-12T13:35:16.209Z,0.57
2019-05-12T13:37:43.930Z,0.50
2019-05-12T13:40:12.578Z,0.60
2019-05-12T13:42:41.033Z,0.68
2019-05-12T13:45:13.042Z,0.40
2019-05-12T13:47:40.286Z,0.40
2019-05-12T13:50:15.534Z,0.30
2019-05-12T13:52:39.597Z,0.60
2019-05-12T13:55:08.466Z,0.50
2019-05-12T13:57:36.922Z,0.45
2019-05-12T14:00:10.717Z,0.60
2019-05-12T14:02:37.599Z,0.40
2019-05-12T14:05:11.436Z,0.40
2019-05-12T14:07:37.259Z,1.02
2019-05-12T14:10:07.874Z,2.98
2019-05-12T14:12:36.301Z,0.78
2019-05-12T14:15:07.155Z,0.60
2019-05-12T14:17:40.209Z,1.00
2019-05-12T14:20:09.404Z,0.30
2019-05-12T14:22:37.198Z,0.80
2019-05-12T14:25:06.349Z,0.30
2019-05-12T14:27:34.755Z,0.70
2019-05-12T14:30:09.993Z,0.40
2019-05-12T14:32:33.691Z,0.60
2019-05-12T14:35:04.135Z,1.00
2019-05-12T14:37:33.572Z,0.60
2019-05-12T14:40:04.381Z,0.50
2019-05-12T14:42:37.286Z,0.80
2019-05-12T14:45:04.543Z,15.57
2019-05-12T14:47:33.986Z,8.60
2019-05-12T14:50:04.084Z,5.00
2019-05-12T14:52:33.288Z,0.70
2019-05-12T14:55:03.450Z,0.60
2019-05-12T14:57:37.470Z,1.30
2019-05-12T15:00:03.956Z,0.50
2019-05-12T15:02:33.180Z,2.08
2019-05-12T15:05:06.631Z,0.70
2019-05-12T15:07:31.971Z,0.30
2019-05-12T15:10:02.470Z,0.53
2019-05-12T15:12:30.530Z,1.10
2019-05-12T15:14:58.958Z,2.00
2019-05-12T15:17:27.365Z,13.83
2019-05-12T15:20:00.264Z,5.53
2019-05-12T15:22:26.016Z,12.63
2019-05-12T15:24:58.825Z,15.57
2019-05-12T15:27:39.577Z,0.90
2019-05-12T15:29:58.343Z,28.20
2019-05-12T15:32:25.352Z,6.17
2019-05-12T15:34:53.854Z,22.50
2019-05-12T15:37:23.827Z,24.73
2019-05-12T15:39:53.515Z,2.13
2019-05-12T15:42:23.534Z,15.07
2019-05-12T15:44:53.736Z,21.07
2019-05-12T15:47:29.399Z,24.37
2019-05-12T15:49:53.219Z,10.10
2019-05-12T15:52:24.274Z,0.90
2019-05-12T15:54:54.010Z,0.70
2019-05-12T15:57:24.499Z,0.47
2019-05-12T15:59:54.118Z,0.40
2019-05-12T16:02:23.496Z,0.30
2019-05-12T16:04:54.815Z,0.53
2019-05-12T16:07:24.242Z,0.60
2019-05-12T16:09:54.621Z,0.40
2019-05-12T16:12:26.118Z,0.30
2019-05-12T16:14:54.037Z,0.43
2019-05-12T16:17:25.427Z,0.50
2019-05-12T16:19:54.113Z,0.40
2019-05-12T16:22:23.232Z,1.10
2019-05-12T16:24:53.206Z,0.40
2019-05-12T16:27:24.900Z,0.40
2019-05-12T16:29:53.452Z,0.40
2019-05-12T16:32:26.809Z,2.83
2019-05-12T16:34:54.147Z,1.87
2019-05-12T16:37:30.935Z,5.40
2019-05-12T16:39:54.061Z,1.20
2019-05-12T16:42:23.602Z,0.60
2019-05-12T16:44:56.095Z,0.90
2019-05-12T16:47:25.188Z,0.40
2019-05-12T16:49:53.427Z,0.37
2019-05-12T16:52:24.256Z,0.20
2019-05-12T16:54:54.048Z,0.50
2019-05-12T16:57:22.596Z,0.40
2019-05-12T16:59:55.944Z,0.30
2019-05-12T17:02:23.392Z,0.50
2019-05-12T17:04:51.242Z,0.47
2019-05-12T17:07:20.949Z,0.20
2019-05-12T17:09:49.520Z,5.77
2019-05-12T17:12:17.945Z,3.10
2019-05-12T17:14:50.075Z,0.67
2019-05-12T17:17:16.573Z,0.50
2019-05-12T17:19:44.994Z,0.30
2019-05-12T17:22:17.345Z,0.60
2019-05-12T17:24:44.886Z,0.50
2019-05-12T17:27:15.716Z,0.60
2019-05-12T17:29:43.609Z,0.60
2019-05-12T17:32:13.430Z,0.40
2019-05-12T17:34:45.695Z,0.40
2019-05-12T17:37:14.362Z,0.50
2019-05-12T17:39:43.796Z,0.50
2019-05-12T17:42:21.327Z,0.70
2019-05-12T17:44:43.579Z,0.40
2019-05-12T17:47:20.725Z,0.30
2019-05-12T17:49:43.622Z,0.40
2019-05-12T17:52:17.447Z,0.50
2019-05-12T17:54:43.369Z,0.60
2019-05-12T17:57:17.866Z,0.50
2019-05-12T17:59:44.648Z,0.50
2019-05-12T18:02:16.721Z,0.37
2019-05-12T18:04:43.772Z,0.40
2019-05-12T18:07:18.533Z,0.50
2019-05-12T18:09:44.197Z,0.47
2019-05-12T18:12:13.918Z,0.40
2019-05-12T18:14:50.481Z,0.50
2019-05-12T18:17:14.149Z,0.60
2019-05-12T18:19:44.414Z,0.60
2019-05-12T18:22:14.214Z,0.40
2019-05-12T18:24:49.311Z,0.47
2019-05-12T18:27:13.767Z,0.60
2019-05-12T18:29:44.138Z,0.70
2019-05-12T18:32:13.811Z,0.53
2019-05-12T18:34:44.521Z,0.60
2019-05-12T18:37:13.556Z,0.30
2019-05-12T18:39:43.627Z,0.40
2019-05-12T18:42:13.981Z,0.40
2019-05-12T18:44:43.922Z,13.97
2019-05-12T18:47:16.666Z,0.70
2019-05-12T18:49:48.008Z,0.60
2019-05-12T18:52:14.646Z,0.37
2019-05-12T18:54:52.108Z,0.30
2019-05-12T18:57:13.512Z,0.40
2019-05-12T18:59:46.194Z,0.40
2019-05-12T19:02:14.610Z,4.07
2019-05-12T19:04:44.307Z,1.67
2019-05-12T19:07:15.139Z,0.70
2019-05-12T19:09:46.954Z,0.50
2019-05-12T19:12:17.904Z,0.60
2019-05-12T19:14:43.734Z,0.50
2019-05-12T19:17:14.133Z,0.70
2019-05-12T19:19:46.004Z,0.40
2019-05-12T19:22:14.075Z,0.60
2019-05-12T19:24:44.355Z,0.70
2019-05-12T19:27:16.680Z,0.80
2019-05-12T19:29:48.818Z,1.83
2019-05-12T19:32:14.359Z,1.90
2019-05-12T19:34:43.314Z,0.93
2019-05-12T19:37:14.252Z,0.70
2019-05-12T19:39:44.543Z,0.90
2019-05-12T19:42:17.065Z,0.77
2019-05-12T19:44:43.900Z,1.30
2019-05-12T19:47:13.739Z,1.00
2019-05-12T19:49:47.926Z,1.03
2019-05-12T19:52:13.954Z,0.97
2019-05-12T19:54:44.346Z,0.77
2019-05-12T19:57:21.564Z,1.00
2019-05-12T19:59:50.591Z,0.87
2019-05-12T20:03:34.799Z,0.83
2019-05-12T20:06:03.177Z,0.70
2019-05-12T20:08:31.757Z,0.70
2019-05-12T20:11:00.170Z,0.70
2019-05-12T20:13:29.525Z,0.67
2019-05-12T20:15:58.734Z,0.60
2019-05-12T20:18:27.121Z,0.70
2019-05-12T20:20:55.529Z,0.53
2019-05-12T20:23:24.668Z,0.70
2019-05-12T20:25:53.567Z,0.50
2019-05-12T20:28:24.262Z,0.70
2019-05-12T20:31:00.569Z,0.80
2019-05-12T20:33:24.047Z,0.80
2019-05-12T20:35:54.649Z,0.83
2019-05-12T20:38:25.452Z,0.70
2019-05-12T20:40:54.060Z,0.57
2019-05-12T20:43:24.098Z,0.60
2019-05-12T20:45:52.698Z,0.50
2019-05-12T20:48:26.638Z,0.50
2019-05-12T20:50:51.345Z,0.70
2019-05-12T20:53:24.857Z,0.73
2019-05-12T20:55:49.896Z,0.70
2019-05-12T20:58:18.299Z,0.77
2019-05-12T21:00:50.104Z,1.00
2019-05-12T21:03:16.917Z,0.77
2019-05-12T21:05:50.582Z,0.60
2019-05-12T21:08:15.733Z,0.50
2019-05-12T21:10:44.312Z,0.60
2019-05-12T21:13:14.707Z,0.80
2019-05-12T21:15:45.640Z,0.60
2019-05-12T21:18:14.687Z,0.50
2019-05-12T21:20:46.306Z,1.00
2019-05-12T21:23:13.617Z,0.80
2019-05-12T21:25:43.904Z,0.70
2019-05-12T21:28:14.657Z,0.57
2019-05-12T21:30:48.144Z,0.77
2019-05-12T21:33:14.734Z,0.67
2019-05-12T21:35:45.790Z,0.60
2019-05-12T21:38:13.453Z,0.50
2019-05-12T21:40:44.066Z,0.50
2019-05-12T21:43:13.554Z,0.40
2019-05-12T21:45:42.123Z,0.50
2019-05-12T21:48:15.058Z,0.50
2019-05-12T21:50:40.875Z,0.60
2019-05-12T21:53:10.300Z,0.60
2019-05-12T21:55:39.706Z,0.60
2019-05-12T21:58:12.058Z,0.60
2019-05-12T22:00:50.378Z,0.67
2019-05-12T22:03:16.643Z,0.60
2019-05-12T22:05:51.659Z,0.60
2019-05-12T22:08:20.648Z,0.53
2019-05-12T22:10:47.379Z,0.50
2019-05-12T22:13:18.117Z,0.53
2019-05-12T22:15:45.907Z,0.77
2019-05-12T22:18:14.361Z,0.50
2019-05-12T22:20:46.051Z,0.97
2019-05-12T22:23:15.144Z,0.63
2019-05-12T22:25:43.637Z,0.70
2019-05-12T22:28:13.518Z,0.40
2019-05-12T22:30:43.765Z,0.60
2019-05-12T22:33:13.748Z,0.60
2019-05-12T22:35:44.373Z,0.50
2019-05-12T22:38:19.368Z,0.40
2019-05-12T22:40:43.176Z,0.60
2019-05-12T22:43:11.573Z,0.87
2019-05-12T22:45:44.357Z,0.70
2019-05-12T22:48:10.114Z,0.60
2019-05-12T22:50:43.537Z,0.60
2019-05-12T22:53:13.400Z,0.70
2019-05-12T22:55:42.210Z,0.70
2019-05-12T22:58:16.658Z,0.60
2019-05-12T23:00:40.883Z,0.60
2019-05-12T23:03:11.648Z,0.67
2019-05-12T23:05:39.499Z,0.80
2019-05-12T23:08:08.544Z,0.63
2019-05-12T23:10:41.427Z,0.70
2019-05-12T23:13:07.183Z,0.80
2019-05-12T23:15:38.797Z,3.83
2019-05-12T23:18:05.907Z,2.20
2019-05-12T23:20:35.648Z,2.00
2019-05-12T23:23:09.146Z,1.13
2019-05-12T23:25:34.373Z,0.90
2019-05-12T23:28:08.453Z,0.67
2019-05-12T23:30:32.971Z,1.27
2019-05-12T23:33:03.827Z,0.90
2019-05-12T23:35:37.730Z,0.67
2019-05-12T23:38:04.179Z,0.70
2019-05-12T23:40:34.249Z,0.70
2019-05-12T23:43:04.077Z,1.50
2019-05-12T23:45:34.049Z,2.60
2019-05-12T23:48:03.673Z,2.40
2019-05-12T23:50:32.431Z,1.20
2019-05-12T23:53:03.496Z,1.17
2019-05-12T23:55:34.731Z,1.17
2019-05-12T23:58:04.331Z,1.10
